sensor_id;sensor_type;location;lat;lon;timestamp;P1;durP1;ratioP1;P2;durP2;ratioP2
47762;SDS011;33526;42.690;23.322;2022-12-05T00:01:43;16.85;;;8.98;;
47762;SDS011;33526;42.690;23.322;2022-12-05T00:04:10;17.35;;;8.93;;
47762;SDS011;33526;42.690;23.322;2022-12-05T00:06:38;13.23;;;8.18;;
47762;SDS011;33526;42.690;23.322;2022-12-05T00:09:05;16.00;;;9.07;;
47762;SDS011;33526;42.690;23.322;2022-12-05T00:11:33;14.75;;;8.10;;
47762;SDS011;33526;42.690;23.322;2022-12-05T00:14:00;15.63;;;8.40;;
47762;SDS011;33526;42.690;23.322;2022-12-05T00:18:54;15.40;;;8.40;;
47762;SDS011;33526;42.690;23.322;2022-12-05T00:21:21;16.10;;;8.73;;
47762;SDS011;33526;42.690;23.322;2022-12-05T00:23:48;22.48;;;9.63;;
47762;SDS011;33526;42.690;23.322;2022-12-05T00:26:15;17.67;;;8.90;;
47762;SDS011;33526;42.690;23.322;2022-12-05T00:28:41;17.50;;;8.27;;
47762;SDS011;33526;42.690;23.322;2022-12-05T00:31:08;15.23;;;8.60;;
47762;SDS011;33526;42.690;23.322;2022-12-05T00:33:38;19.88;;;9.68;;
47762;SDS011;33526;42.690;23.322;2022-12-05T00:36:05;16.95;;;9.20;;
47762;SDS011;33526;42.690;23.322;2022-12-05T00:38:33;19.23;;;8.65;;
47762;SDS011;33526;42.690;23.322;2022-12-05T00:41:05;19.98;;;9.48;;
47762;SDS011;33526;42.690;23.322;2022-12-05T00:43:32;18.50;;;9.68;;
47762;SDS011;33526;42.690;23.322;2022-12-05T00:46:02;21.10;;;9.02;;
47762;SDS011;33526;42.690;23.322;2022-12-05T00:48:28;14.63;;;8.30;;
47762;SDS011;33526;42.690;23.322;2022-12-05T00:51:04;16.73;;;8.57;;
47762;SDS011;33526;42.690;23.322;2022-12-05T00:53:34;19.13;;;9.48;;
47762;SDS011;33526;42.690;23.322;2022-12-05T00:56:08;19.50;;;9.55;;
47762;SDS011;33526;42.690;23.322;2022-12-05T00:58:35;17.55;;;8.48;;
47762;SDS011;33526;42.690;23.322;2022-12-05T01:01:05;17.15;;;8.93;;
47762;SDS011;33526;42.690;23.322;2022-12-05T01:03:41;18.67;;;9.10;;
47762;SDS011;33526;42.690;23.322;2022-12-05T01:06:07;20.15;;;9.43;;
47762;SDS011;33526;42.690;23.322;2022-12-05T01:08:34;16.92;;;8.88;;
47762;SDS011;33526;42.690;23.322;2022-12-05T01:11:01;26.35;;;11.20;;
47762;SDS011;33526;42.690;23.322;2022-12-05T01:13:28;19.35;;;9.68;;
47762;SDS011;33526;42.690;23.322;2022-12-05T01:15:54;18.77;;;9.68;;
47762;SDS011;33526;42.690;23.322;2022-12-05T01:18:20;19.63;;;9.40;;
47762;SDS011;33526;42.690;23.322;2022-12-05T01:20:46;19.83;;;10.27;;
47762;SDS011;33526;42.690;23.322;2022-12-05T01:23:12;17.33;;;9.25;;
47762;SDS011;33526;42.690;23.322;2022-12-05T01:25:38;23.27;;;9.63;;
47762;SDS011;33526;42.690;23.322;2022-12-05T01:30:30;15.55;;;8.35;;
47762;SDS011;33526;42.690;23.322;2022-12-05T01:32:56;18.92;;;8.80;;
47762;SDS011;33526;42.690;23.322;2022-12-05T01:35:22;13.18;;;6.28;;
47762;SDS011;33526;42.690;23.322;2022-12-05T01:37:48;20.90;;;9.82;;
47762;SDS011;33526;42.690;23.322;2022-12-05T01:40:13;18.88;;;8.75;;
47762;SDS011;33526;42.690;23.322;2022-12-05T01:42:39;19.05;;;8.88;;
47762;SDS011;33526;42.690;23.322;2022-12-05T01:45:06;18.90;;;9.25;;
47762;SDS011;33526;42.690;23.322;2022-12-05T01:47:38;23.38;;;10.77;;
47762;SDS011;33526;42.690;23.322;2022-12-05T01:50:04;21.23;;;10.20;;
47762;SDS011;33526;42.690;23.322;2022-12-05T01:52:30;19.73;;;9.18;;
47762;SDS011;33526;42.690;23.322;2022-12-05T01:54:59;21.05;;;9.20;;
47762;SDS011;33526;42.690;23.322;2022-12-05T01:57:28;20.20;;;8.88;;
47762;SDS011;33526;42.690;23.322;2022-12-05T01:59:57;17.50;;;9.82;;
47762;SDS011;33526;42.690;23.322;2022-12-05T02:02:30;19.05;;;9.65;;
47762;SDS011;33526;42.690;23.322;2022-12-05T02:10:22;23.33;;;9.48;;
47762;SDS011;33526;42.690;23.322;2022-12-05T02:12:48;24.05;;;10.57;;
47762;SDS011;33526;42.690;23.322;2022-12-05T02:20:41;22.35;;;9.40;;
47762;SDS011;33526;42.690;23.322;2022-12-05T02:23:40;18.08;;;9.63;;
47762;SDS011;33526;42.690;23.322;2022-12-05T02:34:43;20.80;;;10.10;;
47762;SDS011;33526;42.690;23.322;2022-12-05T02:37:17;18.10;;;9.00;;
47762;SDS011;33526;42.690;23.322;2022-12-05T02:39:53;20.55;;;9.55;;
47762;SDS011;33526;42.690;23.322;2022-12-05T02:42:48;18.63;;;9.02;;
47762;SDS011;33526;42.690;23.322;2022-12-05T02:45:24;19.33;;;9.88;;
47762;SDS011;33526;42.690;23.322;2022-12-05T02:47:54;21.58;;;10.00;;
47762;SDS011;33526;42.690;23.322;2022-12-05T02:50:24;19.48;;;10.02;;
47762;SDS011;33526;42.690;23.322;2022-12-05T02:52:55;19.95;;;9.82;;
47762;SDS011;33526;42.690;23.322;2022-12-05T02:55:24;20.08;;;9.18;;
47762;SDS011;33526;42.690;23.322;2022-12-05T02:57:53;18.13;;;8.85;;
47762;SDS011;33526;42.690;23.322;2022-12-05T03:00:22;18.50;;;9.43;;
47762;SDS011;33526;42.690;23.322;2022-12-05T03:02:47;17.30;;;8.60;;
47762;SDS011;33526;42.690;23.322;2022-12-05T03:07:58;19.50;;;9.95;;
47762;SDS011;33526;42.690;23.322;2022-12-05T03:10:26;20.58;;;9.75;;
47762;SDS011;33526;42.690;23.322;2022-12-05T03:12:59;20.08;;;9.52;;
47762;SDS011;33526;42.690;23.322;2022-12-05T03:15:34;18.70;;;8.43;;
47762;SDS011;33526;42.690;23.322;2022-12-05T03:18:26;17.15;;;8.23;;
47762;SDS011;33526;42.690;23.322;2022-12-05T03:21:07;20.67;;;9.80;;
47762;SDS011;33526;42.690;23.322;2022-12-05T03:23:43;18.75;;;9.80;;
47762;SDS011;33526;42.690;23.322;2022-12-05T03:34:32;16.40;;;8.35;;
47762;SDS011;33526;42.690;23.322;2022-12-05T03:37:00;18.52;;;9.68;;
47762;SDS011;33526;42.690;23.322;2022-12-05T03:39:34;18.40;;;9.10;;
47762;SDS011;33526;42.690;23.322;2022-12-05T03:42:13;17.35;;;8.60;;
47762;SDS011;33526;42.690;23.322;2022-12-05T03:47:18;21.90;;;10.23;;
47762;SDS011;33526;42.690;23.322;2022-12-05T03:49:51;18.80;;;9.80;;
47762;SDS011;33526;42.690;23.322;2022-12-05T03:55:26;18.02;;;8.38;;
47762;SDS011;33526;42.690;23.322;2022-12-05T03:58:00;17.60;;;8.45;;
47762;SDS011;33526;42.690;23.322;2022-12-05T04:00:33;17.98;;;8.32;;
47762;SDS011;33526;42.690;23.322;2022-12-05T04:08:20;17.50;;;8.07;;
47762;SDS011;33526;42.690;23.322;2022-12-05T04:10:49;22.27;;;9.60;;
47762;SDS011;33526;42.690;23.322;2022-12-05T04:13:25;19.73;;;8.18;;
47762;SDS011;33526;42.690;23.322;2022-12-05T04:15:59;18.58;;;8.63;;
47762;SDS011;33526;42.690;23.322;2022-12-05T04:18:52;20.35;;;8.77;;
47762;SDS011;33526;42.690;23.322;2022-12-05T04:21:25;17.88;;;8.85;;
47762;SDS011;33526;42.690;23.322;2022-12-05T04:24:20;18.88;;;9.15;;
47762;SDS011;33526;42.690;23.322;2022-12-05T04:32:39;20.55;;;9.57;;
47762;SDS011;33526;42.690;23.322;2022-12-05T04:35:12;22.30;;;10.27;;
47762;SDS011;33526;42.690;23.322;2022-12-05T04:37:44;21.15;;;8.95;;
47762;SDS011;33526;42.690;23.322;2022-12-05T04:40:33;19.02;;;9.88;;
47762;SDS011;33526;42.690;23.322;2022-12-05T04:43:03;24.92;;;9.60;;
47762;SDS011;33526;42.690;23.322;2022-12-05T04:45:31;21.92;;;10.18;;
47762;SDS011;33526;42.690;23.322;2022-12-05T04:48:00;21.80;;;10.52;;
47762;SDS011;33526;42.690;23.322;2022-12-05T04:50:32;22.92;;;10.02;;
47762;SDS011;33526;42.690;23.322;2022-12-05T04:52:59;20.95;;;9.55;;
47762;SDS011;33526;42.690;23.322;2022-12-05T05:00:29;20.17;;;10.00;;
47762;SDS011;33526;42.690;23.322;2022-12-05T05:03:10;24.98;;;10.60;;
47762;SDS011;33526;42.690;23.322;2022-12-05T05:05:44;25.05;;;10.43;;
47762;SDS011;33526;42.690;23.322;2022-12-05T05:08:19;22.67;;;9.68;;
47762;SDS011;33526;42.690;23.322;2022-12-05T05:10:49;24.30;;;9.90;;
47762;SDS011;33526;42.690;23.322;2022-12-05T05:13:22;21.15;;;9.05;;
47762;SDS011;33526;42.690;23.322;2022-12-05T05:15:48;23.85;;;9.52;;
47762;SDS011;33526;42.690;23.322;2022-12-05T05:18:14;24.95;;;10.00;;
47762;SDS011;33526;42.690;23.322;2022-12-05T05:20:39;23.13;;;10.32;;
47762;SDS011;33526;42.690;23.322;2022-12-05T05:23:04;20.02;;;9.00;;
47762;SDS011;33526;42.690;23.322;2022-12-05T05:25:30;22.77;;;9.90;;
47762;SDS011;33526;42.690;23.322;2022-12-05T05:27:55;21.08;;;9.32;;
47762;SDS011;33526;42.690;23.322;2022-12-05T05:30:21;22.88;;;9.77;;
47762;SDS011;33526;42.690;23.322;2022-12-05T05:32:48;23.35;;;10.05;;
47762;SDS011;33526;42.690;23.322;2022-12-05T05:35:14;26.30;;;10.73;;
47762;SDS011;33526;42.690;23.322;2022-12-05T05:37:40;17.43;;;9.17;;
47762;SDS011;33526;42.690;23.322;2022-12-05T05:40:06;23.10;;;9.88;;
47762;SDS011;33526;42.690;23.322;2022-12-05T05:42:33;21.17;;;10.23;;
47762;SDS011;33526;42.690;23.322;2022-12-05T05:44:59;19.30;;;8.85;;
47762;SDS011;33526;42.690;23.322;2022-12-05T05:47:24;17.10;;;9.40;;
47762;SDS011;33526;42.690;23.322;2022-12-05T05:49:49;33.05;;;10.30;;
47762;SDS011;33526;42.690;23.322;2022-12-05T05:52:15;23.35;;;9.70;;
47762;SDS011;33526;42.690;23.322;2022-12-05T05:54:40;20.27;;;9.63;;
47762;SDS011;33526;42.690;23.322;2022-12-05T05:57:06;22.45;;;9.70;;
47762;SDS011;33526;42.690;23.322;2022-12-05T05:59:31;21.77;;;9.10;;
47762;SDS011;33526;42.690;23.322;2022-12-05T06:01:57;17.25;;;9.35;;
47762;SDS011;33526;42.690;23.322;2022-12-05T06:04:23;21.35;;;10.57;;
47762;SDS011;33526;42.690;23.322;2022-12-05T06:06:48;27.75;;;11.43;;
47762;SDS011;33526;42.690;23.322;2022-12-05T06:09:13;21.40;;;10.32;;
47762;SDS011;33526;42.690;23.322;2022-12-05T06:11:39;22.48;;;10.82;;
47762;SDS011;33526;42.690;23.322;2022-12-05T06:14:05;20.88;;;10.00;;
47762;SDS011;33526;42.690;23.322;2022-12-05T06:16:31;23.23;;;9.57;;
47762;SDS011;33526;42.690;23.322;2022-12-05T06:18:57;24.27;;;10.43;;
47762;SDS011;33526;42.690;23.322;2022-12-05T06:21:23;22.20;;;10.23;;
47762;SDS011;33526;42.690;23.322;2022-12-05T06:23:50;20.27;;;9.45;;
47762;SDS011;33526;42.690;23.322;2022-12-05T06:26:19;20.13;;;9.07;;
47762;SDS011;33526;42.690;23.322;2022-12-05T06:28:45;19.92;;;9.57;;
47762;SDS011;33526;42.690;23.322;2022-12-05T06:31:15;20.90;;;9.60;;
47762;SDS011;33526;42.690;23.322;2022-12-05T06:33:43;19.80;;;9.55;;
47762;SDS011;33526;42.690;23.322;2022-12-05T06:36:10;27.88;;;11.07;;
47762;SDS011;33526;42.690;23.322;2022-12-05T06:38:38;21.25;;;10.00;;
47762;SDS011;33526;42.690;23.322;2022-12-05T06:41:05;22.35;;;9.38;;
47762;SDS011;33526;42.690;23.322;2022-12-05T06:43:32;15.88;;;9.07;;
47762;SDS011;33526;42.690;23.322;2022-12-05T06:45:58;22.85;;;9.68;;
47762;SDS011;33526;42.690;23.322;2022-12-05T06:48:29;21.48;;;8.73;;
47762;SDS011;33526;42.690;23.322;2022-12-05T06:50:54;21.02;;;9.75;;
47762;SDS011;33526;42.690;23.322;2022-12-05T06:53:20;18.63;;;9.55;;
47762;SDS011;33526;42.690;23.322;2022-12-05T06:58:21;21.55;;;9.13;;
47762;SDS011;33526;42.690;23.322;2022-12-05T07:00:46;18.67;;;9.20;;
47762;SDS011;33526;42.690;23.322;2022-12-05T07:03:31;19.70;;;9.52;;
47762;SDS011;33526;42.690;23.322;2022-12-05T07:05:59;17.73;;;9.00;;
47762;SDS011;33526;42.690;23.322;2022-12-05T07:08:26;17.08;;;8.13;;
47762;SDS011;33526;42.690;23.322;2022-12-05T07:10:52;17.70;;;7.88;;
47762;SDS011;33526;42.690;23.322;2022-12-05T07:13:18;18.15;;;8.65;;
47762;SDS011;33526;42.690;23.322;2022-12-05T07:15:47;14.55;;;7.95;;
47762;SDS011;33526;42.690;23.322;2022-12-05T07:20:44;19.42;;;9.27;;
47762;SDS011;33526;42.690;23.322;2022-12-05T07:23:10;24.38;;;8.88;;
47762;SDS011;33526;42.690;23.322;2022-12-05T07:25:42;21.15;;;9.85;;
47762;SDS011;33526;42.690;23.322;2022-12-05T07:28:07;22.38;;;10.10;;
47762;SDS011;33526;42.690;23.322;2022-12-05T07:30:34;18.58;;;9.50;;
47762;SDS011;33526;42.690;23.322;2022-12-05T07:33:02;21.88;;;10.90;;
47762;SDS011;33526;42.690;23.322;2022-12-05T07:35:30;19.33;;;9.77;;
47762;SDS011;33526;42.690;23.322;2022-12-05T07:37:55;20.52;;;9.80;;
47762;SDS011;33526;42.690;23.322;2022-12-05T07:42:57;25.52;;;10.77;;
47762;SDS011;33526;42.690;23.322;2022-12-05T07:52:47;25.85;;;10.13;;
47762;SDS011;33526;42.690;23.322;2022-12-05T07:58:06;21.48;;;9.40;;
47762;SDS011;33526;42.690;23.322;2022-12-05T08:03:34;19.45;;;9.75;;
47762;SDS011;33526;42.690;23.322;2022-12-05T08:06:05;23.70;;;12.60;;
47762;SDS011;33526;42.690;23.322;2022-12-05T08:11:38;26.17;;;11.90;;
47762;SDS011;33526;42.690;23.322;2022-12-05T08:14:10;24.17;;;12.10;;
47762;SDS011;33526;42.690;23.322;2022-12-05T08:45:55;20.17;;;9.07;;
47762;SDS011;33526;42.690;23.322;2022-12-05T09:05:17;14.70;;;8.13;;
47762;SDS011;33526;42.690;23.322;2022-12-05T09:07:44;17.27;;;7.95;;
47762;SDS011;33526;42.690;23.322;2022-12-05T09:10:17;12.38;;;6.82;;
47762;SDS011;33526;42.690;23.322;2022-12-05T09:39:07;10.43;;;5.38;;
47762;SDS011;33526;42.690;23.322;2022-12-05T09:45:10;22.73;;;8.40;;
47762;SDS011;33526;42.690;23.322;2022-12-05T09:47:55;13.60;;;8.75;;
47762;SDS011;33526;42.690;23.322;2022-12-05T09:58:57;10.25;;;5.85;;
47762;SDS011;33526;42.690;23.322;2022-12-05T10:01:40;9.10;;;5.32;;
47762;SDS011;33526;42.690;23.322;2022-12-05T10:07:54;17.02;;;8.55;;
47762;SDS011;33526;42.690;23.322;2022-12-05T10:10:56;20.73;;;6.57;;
47762;SDS011;33526;42.690;23.322;2022-12-05T10:14:32;10.45;;;6.40;;
47762;SDS011;33526;42.690;23.322;2022-12-05T10:17:39;19.35;;;11.10;;
47762;SDS011;33526;42.690;23.322;2022-12-05T10:20:35;12.30;;;7.30;;
47762;SDS011;33526;42.690;23.322;2022-12-05T10:32:21;15.93;;;7.97;;
47762;SDS011;33526;42.690;23.322;2022-12-05T10:35:20;14.63;;;7.97;;
47762;SDS011;33526;42.690;23.322;2022-12-05T10:38:24;12.05;;;7.28;;
47762;SDS011;33526;42.690;23.322;2022-12-05T10:41:11;22.45;;;8.60;;
47762;SDS011;33526;42.690;23.322;2022-12-05T10:44:02;18.75;;;9.00;;
47762;SDS011;33526;42.690;23.322;2022-12-05T10:46:49;15.52;;;7.18;;
47762;SDS011;33526;42.690;23.322;2022-12-05T10:52:15;17.42;;;7.15;;
47762;SDS011;33526;42.690;23.322;2022-12-05T10:58:06;17.23;;;8.38;;
47762;SDS011;33526;42.690;23.322;2022-12-05T11:00:41;15.40;;;7.70;;
47762;SDS011;33526;42.690;23.322;2022-12-05T11:03:31;11.77;;;7.55;;
47762;SDS011;33526;42.690;23.322;2022-12-05T11:09:13;16.98;;;8.95;;
47762;SDS011;33526;42.690;23.322;2022-12-05T11:12:15;11.43;;;6.60;;
47762;SDS011;33526;42.690;23.322;2022-12-05T11:17:38;18.60;;;8.07;;
47762;SDS011;33526;42.690;23.322;2022-12-05T11:23:57;12.57;;;8.23;;
47762;SDS011;33526;42.690;23.322;2022-12-05T11:29:59;16.58;;;8.88;;
47762;SDS011;33526;42.690;23.322;2022-12-05T11:35:46;18.98;;;8.88;;
47762;SDS011;33526;42.690;23.322;2022-12-05T11:38:16;12.95;;;8.00;;
47762;SDS011;33526;42.690;23.322;2022-12-05T12:10:28;15.10;;;7.15;;
47762;SDS011;33526;42.690;23.322;2022-12-05T13:37:31;32.75;;;15.32;;
47762;SDS011;33526;42.690;23.322;2022-12-05T13:40:49;25.85;;;13.50;;
47762;SDS011;33526;42.690;23.322;2022-12-05T13:49:03;24.63;;;13.65;;
47762;SDS011;33526;42.690;23.322;2022-12-05T13:52:14;26.02;;;12.52;;
47762;SDS011;33526;42.690;23.322;2022-12-05T13:55:33;27.70;;;13.68;;
47762;SDS011;33526;42.690;23.322;2022-12-05T14:01:49;26.08;;;13.02;;
47762;SDS011;33526;42.690;23.322;2022-12-05T14:07:35;27.20;;;13.10;;
47762;SDS011;33526;42.690;23.322;2022-12-05T14:19:35;27.95;;;13.75;;
47762;SDS011;33526;42.690;23.322;2022-12-05T14:36:37;27.15;;;13.35;;
47762;SDS011;33526;42.690;23.322;2022-12-05T15:01:22;29.65;;;15.77;;
47762;SDS011;33526;42.690;23.322;2022-12-05T15:07:38;46.10;;;21.85;;
47762;SDS011;33526;42.690;23.322;2022-12-05T15:10:19;29.60;;;14.32;;
47762;SDS011;33526;42.690;23.322;2022-12-05T15:16:48;33.17;;;15.60;;
47762;SDS011;33526;42.690;23.322;2022-12-05T15:19:48;35.30;;;15.93;;
47762;SDS011;33526;42.690;23.322;2022-12-05T15:23:36;31.58;;;15.43;;
47762;SDS011;33526;42.690;23.322;2022-12-05T15:34:58;36.58;;;17.63;;
47762;SDS011;33526;42.690;23.322;2022-12-05T15:37:58;25.63;;;13.40;;
47762;SDS011;33526;42.690;23.322;2022-12-05T15:49:44;33.88;;;17.10;;
47762;SDS011;33526;42.690;23.322;2022-12-05T15:52:16;35.83;;;14.80;;
47762;SDS011;33526;42.690;23.322;2022-12-05T15:55:02;24.63;;;13.25;;
47762;SDS011;33526;42.690;23.322;2022-12-05T15:57:46;25.92;;;15.02;;
47762;SDS011;33526;42.690;23.322;2022-12-05T16:00:19;34.67;;;15.85;;
47762;SDS011;33526;42.690;23.322;2022-12-05T16:03:04;35.15;;;16.30;;
47762;SDS011;33526;42.690;23.322;2022-12-05T16:05:46;32.63;;;15.70;;
47762;SDS011;33526;42.690;23.322;2022-12-05T16:08:27;30.40;;;15.80;;
47762;SDS011;33526;42.690;23.322;2022-12-05T16:11:09;31.67;;;14.95;;
47762;SDS011;33526;42.690;23.322;2022-12-05T16:13:41;92.05;;;43.78;;
47762;SDS011;33526;42.690;23.322;2022-12-05T16:24:02;34.70;;;16.60;;
47762;SDS011;33526;42.690;23.322;2022-12-05T16:29:27;33.17;;;16.65;;
47762;SDS011;33526;42.690;23.322;2022-12-05T16:32:02;35.75;;;17.92;;
47762;SDS011;33526;42.690;23.322;2022-12-05T16:38:24;48.75;;;16.55;;
47762;SDS011;33526;42.690;23.322;2022-12-05T17:02:26;22.70;;;13.25;;
47762;SDS011;33526;42.690;23.322;2022-12-05T17:11:23;30.35;;;16.55;;
47762;SDS011;33526;42.690;23.322;2022-12-05T17:26:03;36.78;;;18.98;;
47762;SDS011;33526;42.690;23.322;2022-12-05T17:29:28;26.48;;;14.27;;
47762;SDS011;33526;42.690;23.322;2022-12-05T17:43:01;31.25;;;15.60;;
47762;SDS011;33526;42.690;23.322;2022-12-05T17:46:31;34.03;;;16.42;;
47762;SDS011;33526;42.690;23.322;2022-12-05T17:50:10;34.72;;;15.85;;
47762;SDS011;33526;42.690;23.322;2022-12-05T17:55:30;35.95;;;16.58;;
47762;SDS011;33526;42.690;23.322;2022-12-05T18:06:34;44.28;;;21.88;;
47762;SDS011;33526;42.690;23.322;2022-12-05T18:09:00;39.63;;;20.85;;
47762;SDS011;33526;42.690;23.322;2022-12-05T18:11:26;35.95;;;17.88;;
47762;SDS011;33526;42.690;23.322;2022-12-05T18:16:27;34.45;;;17.15;;
47762;SDS011;33526;42.690;23.322;2022-12-05T18:18:55;35.10;;;17.48;;
47762;SDS011;33526;42.690;23.322;2022-12-05T18:21:37;35.25;;;16.35;;
47762;SDS011;33526;42.690;23.322;2022-12-05T18:24:04;34.60;;;16.83;;
47762;SDS011;33526;42.690;23.322;2022-12-05T18:26:31;35.17;;;17.20;;
47762;SDS011;33526;42.690;23.322;2022-12-05T18:31:40;34.08;;;16.50;;
47762;SDS011;33526;42.690;23.322;2022-12-05T18:34:29;34.38;;;17.23;;
47762;SDS011;33526;42.690;23.322;2022-12-05T18:36:58;33.08;;;15.70;;
47762;SDS011;33526;42.690;23.322;2022-12-05T18:39:28;29.42;;;15.85;;
47762;SDS011;33526;42.690;23.322;2022-12-05T18:42:04;39.92;;;21.27;;
47762;SDS011;33526;42.690;23.322;2022-12-05T18:44:56;29.52;;;15.82;;
47762;SDS011;33526;42.690;23.322;2022-12-05T18:48:03;38.75;;;18.13;;
47762;SDS011;33526;42.690;23.322;2022-12-05T18:50:42;33.97;;;16.70;;
47762;SDS011;33526;42.690;23.322;2022-12-05T18:53:35;37.67;;;17.75;;
47762;SDS011;33526;42.690;23.322;2022-12-05T18:56:05;39.47;;;18.17;;
47762;SDS011;33526;42.690;23.322;2022-12-05T19:01:38;36.38;;;17.33;;
47762;SDS011;33526;42.690;23.322;2022-12-05T19:04:54;31.85;;;16.08;;
47762;SDS011;33526;42.690;23.322;2022-12-05T19:07:48;36.72;;;18.77;;
47762;SDS011;33526;42.690;23.322;2022-12-05T19:10:26;38.10;;;18.15;;
47762;SDS011;33526;42.690;23.322;2022-12-05T19:13:00;30.80;;;15.25;;
47762;SDS011;33526;42.690;23.322;2022-12-05T19:16:19;30.40;;;16.00;;
47762;SDS011;33526;42.690;23.322;2022-12-05T19:18:57;36.70;;;17.90;;
47762;SDS011;33526;42.690;23.322;2022-12-05T19:21:34;42.83;;;21.50;;
47762;SDS011;33526;42.690;23.322;2022-12-05T19:24:03;40.47;;;19.67;;
47762;SDS011;33526;42.690;23.322;2022-12-05T19:26:51;35.63;;;16.58;;
47762;SDS011;33526;42.690;23.322;2022-12-05T19:31:58;31.63;;;15.70;;
47762;SDS011;33526;42.690;23.322;2022-12-05T19:34:55;31.65;;;15.68;;
47762;SDS011;33526;42.690;23.322;2022-12-05T19:41:21;29.92;;;14.48;;
47762;SDS011;33526;42.690;23.322;2022-12-05T19:44:08;34.22;;;15.52;;
47762;SDS011;33526;42.690;23.322;2022-12-05T19:50:42;33.97;;;15.65;;
47762;SDS011;33526;42.690;23.322;2022-12-05T19:53:21;35.00;;;16.33;;
47762;SDS011;33526;42.690;23.322;2022-12-05T19:55:57;38.42;;;19.77;;
47762;SDS011;33526;42.690;23.322;2022-12-05T19:58:24;34.63;;;17.95;;
47762;SDS011;33526;42.690;23.322;2022-12-05T20:01:10;34.35;;;17.35;;
47762;SDS011;33526;42.690;23.322;2022-12-05T20:04:16;31.20;;;16.13;;
47762;SDS011;33526;42.690;23.322;2022-12-05T20:07:25;34.90;;;18.45;;
47762;SDS011;33526;42.690;23.322;2022-12-05T20:10:16;33.85;;;17.38;;
47762;SDS011;33526;42.690;23.322;2022-12-05T20:12:53;34.22;;;18.05;;
47762;SDS011;33526;42.690;23.322;2022-12-05T20:15:24;35.55;;;18.40;;
47762;SDS011;33526;42.690;23.322;2022-12-05T20:17:55;29.33;;;14.98;;
47762;SDS011;33526;42.690;23.322;2022-12-05T20:20:32;28.83;;;14.70;;
47762;SDS011;33526;42.690;23.322;2022-12-05T20:23:02;31.23;;;14.98;;
47762;SDS011;33526;42.690;23.322;2022-12-05T20:25:35;30.65;;;15.32;;
47762;SDS011;33526;42.690;23.322;2022-12-05T20:28:19;28.17;;;14.80;;
47762;SDS011;33526;42.690;23.322;2022-12-05T20:30:52;26.88;;;14.15;;
47762;SDS011;33526;42.690;23.322;2022-12-05T20:41:11;31.42;;;14.82;;
47762;SDS011;33526;42.690;23.322;2022-12-05T20:43:42;52.28;;;24.08;;
47762;SDS011;33526;42.690;23.322;2022-12-05T20:46:16;29.00;;;14.10;;
47762;SDS011;33526;42.690;23.322;2022-12-05T20:49:05;21.52;;;12.32;;
47762;SDS011;33526;42.690;23.322;2022-12-05T20:51:35;22.90;;;12.77;;
47762;SDS011;33526;42.690;23.322;2022-12-05T21:00:14;25.42;;;11.57;;
47762;SDS011;33526;42.690;23.322;2022-12-05T21:09:11;27.52;;;15.18;;
47762;SDS011;33526;42.690;23.322;2022-12-05T21:12:23;26.50;;;13.88;;
